Time;durP1;ratioP1;P1;durP2;ratioP2;P2;SDS_P1;SDS_P2;PMS_P1;PMS_P2;Temp;Humidity;BMP_temperature;BMP_pressure;BME280_temperature;BME280_humidity;BME280_pressure;Samples;Min_cycle;Max_cycle;Signal;HPM_P1;HPM_P2
2022/02/08 00:02:26;;;;;;;5.30;1.40;;;4.80;99.90;;;;;;5077822;28;20225;-49
2022/02/08 00:04:54;;;;;;;4.20;1.37;;;4.80;99.90;;;;;;5066312;28;20263;-54
2022/02/08 00:07:20;;;;;;;7.93;1.60;;;4.80;99.90;;;;;;5082184;28;20214;-55
2022/02/08 00:09:47;;;;;;;10.50;1.93;;;4.80;99.90;;;;;;5082121;28;20194;-55
2022/02/08 00:12:16;;;;;;;8.20;1.67;;;4.80;99.90;;;;;;5077213;28;20186;-53
2022/02/08 00:14:42;;;;;;;7.50;1.87;;;4.80;99.90;;;;;;5082441;28;20557;-46
2022/02/08 00:17:09;;;;;;;7.07;1.20;;;4.70;99.90;;;;;;5073598;28;20792;-45
2022/02/08 00:19:36;;;;;;;6.00;1.60;;;4.80;99.90;;;;;;5062000;28;20678;-45
2022/02/08 00:22:03;;;;;;;10.03;1.60;;;4.70;99.90;;;;;;5078496;28;20194;-49
2022/02/08 00:24:30;;;;;;;11.87;1.50;;;4.70;99.90;;;;;;5077791;28;20208;-46
2022/02/08 00:26:56;;;;;;;9.30;2.20;;;4.80;99.90;;;;;;5074272;28;20218;-53
2022/02/08 00:29:25;;;;;;;7.57;1.60;;;4.70;99.90;;;;;;5079719;28;20190;-46
2022/02/08 00:31:52;;;;;;;9.90;1.60;;;4.70;99.90;;;;;;5077099;28;20201;-50
2022/02/08 00:34:19;;;;;;;8.93;1.93;;;4.70;99.90;;;;;;5076021;28;20269;-50
2022/02/08 00:36:46;;;;;;;5.77;1.60;;;4.70;99.90;;;;;;5065780;28;20205;-49
2022/02/08 00:39:13;;;;;;;8.70;1.67;;;4.70;99.90;;;;;;5079716;28;20206;-46
2022/02/08 00:41:40;;;;;;;2.90;1.70;;;4.70;99.90;;;;;;5082606;28;20201;-54
2022/02/08 00:44:11;;;;;;;8.03;1.50;;;4.70;99.90;;;;;;5077950;28;20947;-46
2022/02/08 00:46:45;;;;;;;8.47;1.87;;;4.70;99.90;;;;;;5079281;28;20225;-48
2022/02/08 00:49:13;;;;;;;11.73;1.43;;;4.70;99.90;;;;;;5073752;28;20209;-47
2022/02/08 00:51:44;;;;;;;4.40;1.30;;;4.70;99.90;;;;;;5062535;28;20206;-49
2022/02/08 00:54:11;;;;;;;6.00;1.50;;;4.60;99.90;;;;;;5079089;28;20294;-46
2022/02/08 00:56:40;;;;;;;6.73;1.57;;;4.70;99.90;;;;;;5074347;28;20191;-52
2022/02/08 00:59:09;;;;;;;6.23;1.57;;;4.60;99.90;;;;;;5075314;28;20213;-50
2022/02/08 01:01:38;;;;;;;10.73;1.80;;;4.70;99.90;;;;;;5078083;28;20202;-44
2022/02/08 01:04:08;;;;;;;2.97;1.30;;;4.70;99.90;;;;;;5071621;28;20202;-48
2022/02/08 01:06:35;;;;;;;5.90;1.40;;;4.70;99.90;;;;;;5060814;28;20199;-44
2022/02/08 01:09:09;;;;;;;9.73;1.97;;;4.70;99.90;;;;;;5070639;28;20183;-46
2022/02/08 01:11:36;;;;;;;13.47;1.57;;;4.80;99.90;;;;;;5076435;28;20194;-46
2022/02/08 01:14:03;;;;;;;8.03;1.57;;;4.80;99.90;;;;;;5063598;28;20286;-47
2022/02/08 01:16:30;;;;;;;6.93;1.40;;;4.80;99.90;;;;;;5071104;28;20191;-45
2022/02/08 01:18:59;;;;;;;6.90;1.80;;;4.80;99.90;;;;;;5073331;28;20559;-53
2022/02/08 01:21:27;;;;;;;7.27;1.37;;;4.80;99.90;;;;;;5081374;28;20195;-45
2022/02/08 01:23:54;;;;;;;7.10;1.50;;;4.80;99.90;;;;;;5063823;28;20209;-49
2022/02/08 01:26:21;;;;;;;6.00;2.07;;;4.90;99.90;;;;;;5078577;28;20234;-48
2022/02/08 01:28:54;;;;;;;5.90;2.20;;;4.90;99.90;;;;;;5076794;28;20271;-47
2022/02/08 01:31:22;;;;;;;8.40;1.43;;;4.90;99.90;;;;;;5062418;28;20210;-51
2022/02/08 01:36:38;;;;;;;3.80;1.33;;;4.90;99.90;;;;;;5081374;28;20544;-46
2022/02/08 01:39:18;;;;;;;9.20;2.10;;;4.90;99.90;;;;;;5066405;28;20259;-45
2022/02/08 01:42:12;;;;;;;7.00;2.33;;;4.90;99.90;;;;;;5077674;28;20202;-49
2022/02/08 01:44:45;;;;;;;9.87;2.33;;;4.90;99.90;;;;;;5081318;28;20202;-50
2022/02/08 01:47:25;;;;;;;7.53;2.30;;;4.90;99.90;;;;;;5074269;28;20206;-46
2022/02/08 01:50:10;;;;;;;8.03;2.50;;;4.90;99.90;;;;;;5076267;28;20202;-54
2022/02/08 01:52:38;;;;;;;10.20;2.60;;;4.80;99.90;;;;;;5070671;28;20206;-48
2022/02/08 01:55:09;;;;;;;8.43;1.90;;;4.80;99.90;;;;;;5066670;28;20206;-47
2022/02/08 01:57:36;;;;;;;10.53;2.60;;;4.80;99.90;;;;;;5077841;28;20283;-48
2022/02/08 02:00:05;;;;;;;13.03;2.33;;;4.80;99.90;;;;;;5069925;28;20222;-52
2022/02/08 02:02:39;;;;;;;7.73;2.17;;;4.80;99.90;;;;;;5085108;28;20666;-46
2022/02/08 02:05:09;;;;;;;5.87;2.53;;;4.70;99.90;;;;;;5071362;28;20217;-46
2022/02/08 02:07:37;;;;;;;6.83;2.90;;;4.70;99.90;;;;;;5080432;28;20221;-49
2022/02/08 02:10:07;;;;;;;16.83;3.37;;;4.70;99.90;;;;;;5066579;28;20992;-47
2022/02/08 02:12:36;;;;;;;11.40;2.63;;;4.70;99.90;;;;;;5100531;28;20247;-48
2022/02/08 02:15:05;;;;;;;9.60;3.07;;;4.60;99.90;;;;;;5076917;28;20760;-47
2022/02/08 02:17:34;;;;;;;11.50;3.17;;;4.60;99.90;;;;;;5085392;28;20221;-48
2022/02/08 02:20:01;;;;;;;10.00;2.73;;;4.60;99.90;;;;;;5079439;28;21051;-47
2022/02/08 02:22:28;;;;;;;9.13;3.20;;;4.60;99.90;;;;;;5076887;28;20193;-48
2022/02/08 02:24:56;;;;;;;9.53;2.90;;;4.50;99.90;;;;;;5061581;28;20214;-50
2022/02/08 02:27:23;;;;;;;7.77;2.83;;;4.50;99.90;;;;;;5083493;28;20305;-46
2022/02/08 02:29:50;;;;;;;7.70;3.13;;;4.50;99.90;;;;;;5083030;28;20217;-52
2022/02/08 02:32:17;;;;;;;8.63;3.10;;;4.50;99.90;;;;;;5078171;28;20221;-51
2022/02/08 02:34:48;;;;;;;12.80;3.57;;;4.50;99.90;;;;;;5074838;28;20705;-55
2022/02/08 02:37:16;;;;;;;11.03;4.87;;;4.40;99.90;;;;;;5072614;28;20253;-49
2022/02/08 02:39:43;;;;;;;15.80;3.70;;;4.50;99.90;;;;;;5082161;28;20217;-56
2022/02/08 02:42:13;;;;;;;11.23;3.37;;;4.40;99.90;;;;;;5076532;28;20190;-53
2022/02/08 02:44:42;;;;;;;15.07;4.57;;;4.40;99.90;;;;;;5068616;28;20202;-52
2022/02/08 02:47:09;;;;;;;11.80;3.80;;;4.50;99.90;;;;;;5061656;28;20816;-52
2022/02/08 02:49:35;;;;;;;8.97;4.30;;;4.50;99.90;;;;;;5083512;28;20679;-46
2022/02/08 02:52:07;;;;;;;12.23;4.63;;;4.50;99.90;;;;;;5079543;28;20247;-47
2022/02/08 02:54:39;;;;;;;9.23;4.50;;;4.50;99.90;;;;;;5060361;28;20228;-50
2022/02/08 02:57:07;;;;;;;17.33;4.70;;;4.50;99.90;;;;;;5078223;28;20313;-48
2022/02/08 02:59:37;;;;;;;10.10;3.77;;;4.60;99.90;;;;;;5084375;28;20221;-46
2022/02/08 03:05:10;;;;;;;15.43;4.87;;;4.60;99.90;;;;;;4999029;28;20196;-46
2022/02/08 03:18:40;;;;;;;19.43;5.87;;;4.80;99.90;;;;;;5067319;28;20257;-48
2022/02/08 03:21:10;;;;;;;12.33;6.70;;;4.80;99.90;;;;;;5069845;28;20286;-46
2022/02/08 03:23:38;;;;;;;16.63;6.30;;;4.90;99.90;;;;;;5079620;28;20191;-49
2022/02/08 03:26:06;;;;;;;18.67;6.30;;;4.90;99.90;;;;;;5062240;28;20193;-49
2022/02/08 03:28:38;;;;;;;16.57;7.27;;;4.90;99.90;;;;;;5081772;28;20217;-46
2022/02/08 03:31:10;;;;;;;13.67;6.67;;;5.00;99.90;;;;;;5093108;28;20209;-46
2022/02/08 03:33:38;;;;;;;19.77;7.60;;;5.00;99.90;;;;;;5068238;28;20206;-47
2022/02/08 03:36:10;;;;;;;18.83;6.53;;;5.10;99.90;;;;;;5090701;28;20203;-47
2022/02/08 03:38:44;;;;;;;11.70;7.17;;;5.10;99.90;;;;;;5079448;28;20253;-48
2022/02/08 03:41:12;;;;;;;14.30;7.63;;;5.10;99.90;;;;;;5063607;28;20220;-47
2022/02/08 03:43:45;;;;;;;12.70;6.93;;;5.20;99.90;;;;;;5080428;28;20716;-53
2022/02/08 03:46:17;;;;;;;14.47;7.83;;;5.20;99.90;;;;;;5078318;28;20983;-46
2022/02/08 03:48:47;;;;;;;17.97;7.43;;;5.20;99.90;;;;;;5080101;28;20594;-50
2022/02/08 03:51:16;;;;;;;17.27;7.63;;;5.30;99.90;;;;;;5079589;28;21136;-46
2022/02/08 03:54:04;;;;;;;13.63;6.90;;;5.30;99.90;;;;;;5078110;28;20190;-47
2022/02/08 03:56:33;;;;;;;23.37;8.67;;;5.30;99.90;;;;;;5057617;28;20225;-47
2022/02/08 03:59:04;;;;;;;18.23;8.17;;;5.40;99.90;;;;;;5076774;28;20225;-47
2022/02/08 04:02:05;;;;;;;18.90;8.10;;;5.40;99.90;;;;;;5074535;28;20197;-49
2022/02/08 04:04:47;;;;;;;19.13;7.97;;;5.40;99.90;;;;;;5075690;28;20596;-48
2022/02/08 04:07:17;;;;;;;17.97;8.50;;;5.40;99.90;;;;;;5081240;28;20940;-44
2022/02/08 04:09:45;;;;;;;15.70;7.97;;;5.40;99.90;;;;;;5075867;28;20202;-45
2022/02/08 04:12:18;;;;;;;17.50;9.17;;;5.50;99.90;;;;;;5065414;28;20802;-46
2022/02/08 04:14:50;;;;;;;17.37;8.30;;;5.50;99.90;;;;;;5072232;28;20206;-52
2022/02/08 04:17:34;;;;;;;13.07;7.97;;;5.50;99.90;;;;;;5075003;28;20225;-47
2022/02/08 04:34:20;;;;;;;15.90;9.37;;;5.70;99.90;;;;;;5076412;28;20198;-52
2022/02/08 04:37:07;;;;;;;19.20;9.03;;;5.70;99.90;;;;;;5079139;28;20212;-47
2022/02/08 04:39:50;;;;;;;22.93;10.67;;;5.70;99.90;;;;;;5077212;28;20578;-47
2022/02/08 04:42:23;;;;;;;17.03;9.60;;;5.80;99.90;;;;;;5077739;28;20215;-49
2022/02/08 04:44:59;;;;;;;16.53;8.87;;;5.80;99.90;;;;;;5061214;28;20210;-46
2022/02/08 04:47:32;;;;;;;23.23;10.80;;;5.80;99.90;;;;;;5082257;28;20253;-46
2022/02/08 04:50:00;;;;;;;25.77;12.57;;;5.80;99.90;;;;;;5074381;28;20201;-51
2022/02/08 04:52:28;;;;;;;23.80;10.60;;;5.90;99.90;;;;;;5083433;28;20670;-46
2022/02/08 04:55:07;;;;;;;24.33;12.03;;;5.90;99.90;;;;;;5074100;28;20573;-50
2022/02/08 04:57:47;;;;;;;22.43;11.60;;;5.90;99.90;;;;;;5079634;28;20224;-47
2022/02/08 05:00:22;;;;;;;20.17;11.13;;;5.90;99.90;;;;;;5072236;28;20339;-48
2022/02/08 05:28:33;;;;;;;20.80;9.53;;;6.20;99.90;;;;;;5070465;28;20364;-53
2022/02/08 05:36:32;;;;;;;36.20;13.87;;;6.30;99.90;;;;;;5083128;28;20190;-50
2022/02/08 05:41:49;;;;;;;19.57;10.67;;;6.40;99.90;;;;;;5083257;28;20267;-46
2022/02/08 05:44:29;;;;;;;21.50;11.30;;;6.40;99.90;;;;;;5072907;28;20587;-49
2022/02/08 05:46:56;;;;;;;20.50;11.43;;;6.40;99.90;;;;;;5085533;28;20240;-48
2022/02/08 05:49:40;;;;;;;20.33;11.63;;;6.40;99.90;;;;;;5077861;28;20694;-48
2022/02/08 05:54:51;;;;;;;23.20;12.47;;;6.50;99.90;;;;;;5076254;28;22611;-47
2022/02/08 05:57:19;;;;;;;19.73;11.50;;;6.50;99.90;;;;;;5074389;28;20241;-47
2022/02/08 05:59:46;;;;;;;16.33;10.57;;;6.50;99.90;;;;;;5083827;28;20226;-49
2022/02/08 06:02:13;;;;;;;22.90;11.50;;;6.50;99.90;;;;;;5070966;28;20210;-46
2022/02/08 06:05:06;;;;;;;9.50;6.80;;;6.60;99.90;;;;;;5076714;28;20186;-42
2022/02/08 06:07:32;;;;;;;22.60;12.00;;;6.60;99.90;;;;;;5081473;28;20210;-47
2022/02/08 06:10:00;;;;;;;22.37;12.10;;;6.60;99.90;;;;;;5076375;28;20182;-46
2022/02/08 06:12:27;;;;;;;24.90;13.40;;;6.60;99.90;;;;;;5080032;28;20206;-41
2022/02/08 06:15:07;;;;;;;27.57;13.03;;;6.70;99.90;;;;;;5076878;28;20521;-43
2022/02/08 06:17:36;;;;;;;38.23;15.73;;;6.70;99.90;;;;;;5067238;28;20226;-46
2022/02/08 06:20:02;;;;;;;22.60;13.27;;;6.70;99.90;;;;;;5068660;28;20230;-43
2022/02/08 06:22:29;;;;;;;26.00;14.30;;;6.70;99.90;;;;;;5061120;28;20202;-42
2022/02/08 06:24:56;;;;;;;19.57;10.80;;;6.70;99.90;;;;;;5076807;28;20317;-45
2022/02/08 06:27:29;;;;;;;16.43;11.47;;;6.80;99.90;;;;;;5067763;28;20210;-42
2022/02/08 06:29:56;;;;;;;22.30;11.77;;;6.80;99.90;;;;;;5080976;28;20198;-42
2022/02/08 06:32:23;;;;;;;24.17;12.67;;;6.80;99.90;;;;;;5063228;28;20289;-44
2022/02/08 06:34:49;;;;;;;24.30;13.47;;;6.80;99.90;;;;;;5073416;28;20222;-45
2022/02/08 06:37:19;;;;;;;22.27;12.67;;;6.80;99.90;;;;;;5069643;28;20228;-46
2022/02/08 06:39:46;;;;;;;24.53;13.73;;;6.90;99.90;;;;;;5080904;28;20218;-48
2022/02/08 06:42:12;;;;;;;22.33;12.97;;;6.90;99.90;;;;;;5068539;28;20194;-44
2022/02/08 06:44:41;;;;;;;20.57;13.23;;;6.90;99.90;;;;;;5076569;28;20195;-45
2022/02/08 06:47:08;;;;;;;24.47;13.07;;;7.00;99.90;;;;;;5058948;28;20221;-43
2022/02/08 06:49:36;;;;;;;26.70;14.97;;;7.00;99.90;;;;;;5078550;28;20200;-43
2022/02/08 06:52:04;;;;;;;26.80;13.93;;;7.00;99.90;;;;;;5070735;28;20578;-45
2022/02/08 06:54:31;;;;;;;24.03;13.70;;;7.00;99.90;;;;;;5080090;28;20851;-42
2022/02/08 06:56:58;;;;;;;30.20;13.93;;;7.10;99.90;;;;;;5079990;28;20225;-44
2022/02/08 06:59:24;;;;;;;29.63;14.80;;;7.10;99.90;;;;;;5068183;28;20861;-45
2022/02/08 07:01:55;;;;;;;31.33;14.87;;;7.10;99.90;;;;;;5082759;28;20194;-43
2022/02/08 07:04:22;;;;;;;23.00;14.70;;;7.10;99.90;;;;;;5063167;28;20198;-42
2022/02/08 07:06:50;;;;;;;25.30;13.23;;;7.20;99.90;;;;;;5082769;28;20695;-44
2022/02/08 07:09:16;;;;;;;40.27;16.83;;;7.20;99.90;;;;;;5071383;28;20206;-43
2022/02/08 07:12:08;;;;;;;21.37;13.77;;;7.20;99.90;;;;;;5075491;28;20283;-47
2022/02/08 07:14:34;;;;;;;26.23;13.47;;;7.20;99.90;;;;;;5074449;28;20205;-46
2022/02/08 07:17:03;;;;;;;25.43;13.87;;;7.20;99.90;;;;;;5078310;28;20578;-43
2022/02/08 07:19:33;;;;;;;29.97;14.37;;;7.20;99.90;;;;;;5060805;28;20215;-44
2022/02/08 07:22:00;;;;;;;26.10;13.63;;;7.30;99.90;;;;;;5081722;28;20190;-49
2022/02/08 07:24:28;;;;;;;31.60;16.63;;;7.30;99.90;;;;;;5071525;28;20198;-44
2022/02/08 07:26:55;;;;;;;29.20;15.40;;;7.30;99.90;;;;;;5076709;28;20279;-45
2022/02/08 07:29:23;;;;;;;33.57;18.17;;;7.30;99.90;;;;;;5076645;28;20282;-42
2022/02/08 07:31:54;;;;;;;44.33;18.20;;;7.30;99.90;;;;;;5074321;28;20208;-45
2022/02/08 07:34:28;;;;;;;34.40;15.43;;;7.30;99.90;;;;;;5056081;28;20206;-44
2022/02/08 07:37:02;;;;;;;25.40;14.20;;;7.30;99.90;;;;;;5079410;28;20637;-46
2022/02/08 07:39:39;;;;;;;32.07;16.20;;;7.30;99.90;;;;;;5076290;28;20293;-43
2022/02/08 07:42:07;;;;;;;26.20;14.73;;;7.30;99.90;;;;;;5075025;28;20256;-69
2022/02/08 07:44:34;;;;;;;20.40;14.23;;;7.30;99.90;;;;;;5077488;28;20190;-45
2022/02/08 07:47:15;;;;;;;29.40;15.17;;;7.30;99.90;;;;;;5067527;28;20219;-48
2022/02/08 07:49:43;;;;;;;33.80;16.40;;;7.40;99.90;;;;;;5068377;28;20229;-45
2022/02/08 07:52:10;;;;;;;31.90;14.80;;;7.40;99.90;;;;;;5075150;28;20653;-49
2022/02/08 07:54:38;;;;;;;24.07;13.87;;;7.40;99.90;;;;;;5072888;28;20224;-44
2022/02/08 07:57:05;;;;;;;30.23;14.97;;;7.40;99.90;;;;;;5073743;28;20293;-46
2022/02/08 07:59:32;;;;;;;29.33;13.80;;;7.40;99.90;;;;;;5077847;28;20223;-44
2022/02/08 08:01:59;;;;;;;27.03;14.33;;;7.50;99.90;;;;;;5060252;28;20198;-44
2022/02/08 08:04:28;;;;;;;24.10;13.40;;;7.50;99.90;;;;;;5061303;28;20242;-44
2022/02/08 08:06:56;;;;;;;27.63;13.90;;;7.60;99.90;;;;;;5066453;28;20255;-49
2022/02/08 08:09:23;;;;;;;27.53;14.37;;;7.60;99.90;;;;;;5074798;28;20221;-47
2022/02/08 08:11:52;;;;;;;31.20;14.30;;;7.60;99.90;;;;;;5072632;28;20186;-43
2022/02/08 08:14:22;;;;;;;30.97;12.63;;;7.60;99.90;;;;;;5082990;28;20251;-44
2022/02/08 08:16:54;;;;;;;27.20;14.33;;;7.60;99.90;;;;;;5077790;28;20198;-51
2022/02/08 08:19:24;;;;;;;21.90;12.70;;;7.70;99.90;;;;;;5062824;28;20206;-44
2022/02/08 08:21:51;;;;;;;21.27;12.13;;;7.70;99.90;;;;;;5069584;28;20183;-46
2022/02/08 08:24:19;;;;;;;27.40;13.77;;;7.70;99.90;;;;;;5066232;28;20256;-46
2022/02/08 08:26:46;;;;;;;25.20;11.20;;;7.70;99.90;;;;;;5074540;28;20313;-47
2022/02/08 08:29:13;;;;;;;22.47;12.37;;;7.80;99.90;;;;;;5081511;28;20200;-45
2022/02/08 08:31:39;;;;;;;23.07;12.40;;;7.80;99.90;;;;;;5071092;28;20198;-47
2022/02/08 08:34:07;;;;;;;20.37;12.10;;;7.80;99.90;;;;;;5073509;28;20203;-44
2022/02/08 08:36:34;;;;;;;19.67;12.10;;;7.80;99.90;;;;;;5063907;28;20202;-45
2022/02/08 08:39:02;;;;;;;24.53;12.80;;;7.80;99.90;;;;;;5068788;28;20313;-45
2022/02/08 08:41:36;;;;;;;15.27;10.20;;;7.90;99.90;;;;;;5075877;28;20682;-48
2022/02/08 08:52:29;;;;;;;16.43;10.03;;;8.00;99.90;;;;;;5068233;28;20586;-44
2022/02/08 08:54:57;;;;;;;12.43;9.20;;;8.00;99.90;;;;;;5077312;28;20189;-46
2022/02/08 08:57:26;;;;;;;21.27;9.47;;;8.10;99.90;;;;;;5081060;28;20218;-50
2022/02/08 08:59:53;;;;;;;13.57;9.20;;;8.10;99.90;;;;;;5079394;28;20721;-48
2022/02/08 09:02:19;;;;;;;15.73;9.57;;;8.10;99.90;;;;;;5086401;28;20212;-46
2022/02/08 09:04:48;;;;;;;13.60;8.13;;;8.10;99.90;;;;;;5078595;28;20609;-47
2022/02/08 09:07:15;;;;;;;12.90;8.43;;;8.20;99.90;;;;;;5065468;28;20373;-45
2022/02/08 09:09:45;;;;;;;16.70;9.07;;;8.20;99.90;;;;;;5073615;28;20664;-51
2022/02/08 09:12:21;;;;;;;17.73;7.93;;;8.20;99.90;;;;;;5085778;28;20667;-49
2022/02/08 09:15:26;;;;;;;16.10;7.70;;;8.20;99.90;;;;;;5080444;28;20190;-46
2022/02/08 09:18:17;;;;;;;11.77;7.63;;;8.20;99.90;;;;;;5081933;28;20209;-44
2022/02/08 09:21:15;;;;;;;14.27;8.13;;;8.30;99.90;;;;;;5077330;28;20206;-46
2022/02/08 09:24:13;;;;;;;12.27;6.63;;;8.30;99.90;;;;;;5060830;28;20275;-49
2022/02/08 09:27:07;;;;;;;11.27;6.40;;;8.30;99.90;;;;;;5071136;28;20193;-46
2022/02/08 09:29:41;;;;;;;9.90;6.33;;;8.40;99.90;;;;;;5077413;28;20205;-48
2022/02/08 09:32:16;;;;;;;15.03;6.87;;;8.40;99.90;;;;;;5084997;28;20409;-43
2022/02/08 09:34:44;;;;;;;9.30;5.80;;;8.40;99.90;;;;;;5076293;28;20189;-47
2022/02/08 09:37:12;;;;;;;9.47;6.03;;;8.40;99.90;;;;;;5070503;28;20214;-43
2022/02/08 09:39:39;;;;;;;11.43;5.80;;;8.40;99.90;;;;;;5073267;28;20209;-47
2022/02/08 09:42:07;;;;;;;10.37;5.60;;;8.50;99.90;;;;;;5073024;28;20214;-48
2022/02/08 09:44:37;;;;;;;9.37;6.03;;;8.50;99.90;;;;;;5081285;28;20197;-52
2022/02/08 09:47:06;;;;;;;12.93;5.30;;;8.50;99.90;;;;;;5073727;28;20216;-43
2022/02/08 09:49:40;;;;;;;8.20;4.73;;;8.50;99.90;;;;;;5081866;28;20567;-43
2022/02/08 09:52:07;;;;;;;5.07;4.13;;;8.50;99.90;;;;;;5061851;28;20206;-48
2022/02/08 09:54:34;;;;;;;7.20;4.90;;;8.50;99.90;;;;;;5076418;28;20233;-46
2022/02/08 09:57:01;;;;;;;11.17;5.27;;;8.50;99.90;;;;;;5073746;28;20226;-44
2022/02/08 09:59:28;;;;;;;8.83;4.83;;;8.50;99.90;;;;;;5080447;28;20203;-46
2022/02/08 10:01:57;;;;;;;7.70;4.67;;;8.50;99.90;;;;;;5071926;28;20220;-44
2022/02/08 10:04:25;;;;;;;8.07;4.77;;;8.50;99.90;;;;;;5080396;28;20198;-44
2022/02/08 10:06:53;;;;;;;6.33;4.40;;;8.50;99.90;;;;;;5078745;28;20283;-44
2022/02/08 10:09:20;;;;;;;11.47;5.27;;;8.50;99.90;;;;;;5067559;28;20223;-45
2022/02/08 10:11:57;;;;;;;11.83;4.77;;;8.50;99.90;;;;;;5070869;28;20500;-44
2022/02/08 10:14:28;;;;;;;9.57;4.70;;;8.50;99.90;;;;;;5075031;28;20198;-44
2022/02/08 10:22:32;;;;;;;9.63;4.43;;;8.50;99.90;;;;;;5065454;28;20217;-44
2022/02/08 10:25:02;;;;;;;14.43;5.27;;;8.50;99.90;;;;;;5055421;28;20279;-43
2022/02/08 10:27:32;;;;;;;6.83;4.90;;;8.50;99.90;;;;;;5070269;28;20587;-44
2022/02/08 10:30:17;;;;;;;8.77;4.57;;;8.60;99.90;;;;;;5078404;28;20279;-43
2022/02/08 10:38:20;;;;;;;11.73;4.80;;;8.60;99.90;;;;;;5068870;28;20302;-43
2022/02/08 10:40:47;;;;;;;13.40;4.50;;;8.60;99.90;;;;;;5074774;28;20233;-48
2022/02/08 10:43:16;;;;;;;10.77;4.57;;;8.60;99.90;;;;;;5079977;28;20194;-44
2022/02/08 10:45:45;;;;;;;7.33;4.07;;;8.60;99.90;;;;;;5076539;28;20663;-48
2022/02/08 10:48:14;;;;;;;8.13;4.30;;;8.60;99.90;;;;;;5077116;28;20263;-44
2022/02/08 10:50:47;;;;;;;12.23;4.70;;;8.60;99.90;;;;;;5073908;28;20281;-44
2022/02/08 10:53:16;;;;;;;7.07;4.53;;;8.60;99.90;;;;;;5070421;28;20204;-45
2022/02/08 10:55:49;;;;;;;8.00;3.40;;;8.60;99.90;;;;;;5062658;28;20202;-47
2022/02/08 10:58:24;;;;;;;9.73;4.03;;;8.60;99.90;;;;;;5078176;28;20314;-43
2022/02/08 11:00:58;;;;;;;8.10;4.40;;;8.70;99.90;;;;;;5073236;28;20209;-45
2022/02/08 11:03:33;;;;;;;7.30;3.73;;;8.70;99.90;;;;;;5080787;28;20206;-44
2022/02/08 11:06:09;;;;;;;10.23;4.10;;;8.70;99.90;;;;;;5068429;28;20272;-47
2022/02/08 11:08:57;;;;;;;8.33;4.00;;;8.70;99.90;;;;;;5069694;28;20233;-46
2022/02/08 11:11:39;;;;;;;14.80;4.33;;;8.70;99.90;;;;;;5075256;28;20289;-46
2022/02/08 11:14:30;;;;;;;9.00;4.63;;;8.70;99.90;;;;;;5073068;28;20194;-44
2022/02/08 11:20:00;;;;;;;7.37;3.93;;;8.70;99.90;;;;;;5033503;28;20293;-44
2022/02/08 11:22:40;;;;;;;5.80;3.47;;;8.70;99.90;;;;;;5073698;28;20650;-43
2022/02/08 11:25:18;;;;;;;13.40;4.03;;;8.70;99.90;;;;;;5063389;28;20288;-43
2022/02/08 11:27:51;;;;;;;11.47;3.73;;;8.70;99.90;;;;;;5067293;28;20309;-47
2022/02/08 11:30:29;;;;;;;6.57;3.87;;;8.70;99.90;;;;;;5079507;28;20229;-44
2022/02/08 11:33:07;;;;;;;8.27;3.60;;;8.70;99.90;;;;;;5075015;28;20264;-44
2022/02/08 11:44:32;;;;;;;4.47;3.17;;;8.80;99.90;;;;;;5068643;28;20190;-50
2022/02/08 11:47:29;;;;;;;5.40;3.37;;;8.80;99.90;;;;;;5070533;28;21059;-46
2022/02/08 11:50:20;;;;;;;6.13;3.80;;;8.80;99.90;;;;;;5068060;28;20951;-48
2022/02/08 11:52:57;;;;;;;13.10;4.03;;;8.70;99.90;;;;;;5074366;28;20209;-51
2022/02/08 11:55:42;;;;;;;9.33;3.10;;;8.70;99.90;;;;;;5056353;28;20209;-52
2022/02/08 11:58:24;;;;;;;6.03;3.70;;;8.80;99.90;;;;;;5066977;28;20213;-49
2022/02/08 12:01:03;;;;;;;6.43;2.57;;;8.70;99.90;;;;;;5077686;28;20213;-47
2022/02/08 12:04:05;;;;;;;6.10;3.20;;;8.80;99.90;;;;;;5072079;28;20191;-46
2022/02/08 12:06:52;;;;;;;7.80;3.27;;;8.80;99.90;;;;;;5072402;28;20218;-46
2022/02/08 12:09:29;;;;;;;5.47;2.70;;;8.70;99.90;;;;;;5064322;28;20202;-49
2022/02/08 12:12:28;;;;;;;9.20;2.97;;;8.70;99.90;;;;;;5059657;28;20199;-48
2022/02/08 12:34:43;;;;;;;8.77;2.60;;;8.80;99.90;;;;;;5067972;28;20198;-47
2022/02/08 12:54:21;;;;;;;3.77;2.03;;;8.80;99.90;;;;;;5071359;28;20210;-47
2022/02/08 12:56:57;;;;;;;5.27;1.80;;;8.80;99.90;;;;;;5067401;28;20198;-48
2022/02/08 12:59:47;;;;;;;6.23;1.80;;;8.80;99.90;;;;;;5061559;28;20705;-48
2022/02/08 13:02:24;;;;;;;6.50;1.60;;;8.80;99.90;;;;;;5068808;28;20710;-47
2022/02/08 13:05:20;;;;;;;4.83;1.80;;;8.80;99.90;;;;;;5062310;28;20255;-47
2022/02/08 13:32:14;;;;;;;3.37;1.53;;;8.80;99.90;;;;;;5069776;28;20191;-50
2022/02/08 14:06:16;;;;;;;1.83;0.90;;;8.70;99.90;;;;;;5066474;28;20197;-51
2022/02/08 14:14:30;;;;;;;1.97;1.00;;;8.70;99.90;;;;;;5063794;28;20277;-48
2022/02/08 14:20:13;;;;;;;2.27;1.37;;;8.70;99.90;;;;;;5071532;28;20250;-50
2022/02/08 14:22:53;;;;;;;2.13;0.80;;;8.70;99.90;;;;;;5075320;28;20226;-46
2022/02/08 14:25:26;;;;;;;2.60;1.20;;;8.70;99.90;;;;;;5070973;28;20192;-47
2022/02/08 14:30:44;;;;;;;2.13;1.10;;;8.70;99.90;;;;;;5077938;28;20201;-51
2022/02/08 14:33:30;;;;;;;2.50;1.00;;;8.70;99.90;;;;;;5064446;28;20193;-48
2022/02/08 14:36:12;;;;;;;1.20;1.00;;;8.70;99.90;;;;;;5067479;28;20198;-52
2022/02/08 14:57:32;;;;;;;2.20;0.73;;;8.70;99.90;;;;;;5077414;28;20583;-45
2022/02/08 15:06:54;;;;;;;1.17;0.80;;;8.60;99.90;;;;;;5073200;28;20194;-44
2022/02/08 15:09:24;;;;;;;1.43;0.80;;;8.60;99.90;;;;;;5064706;28;20213;-44
2022/02/08 15:12:06;;;;;;;2.97;0.60;;;8.60;99.90;;;;;;5072578;28;20281;-48
2022/02/08 15:14:38;;;;;;;2.10;0.60;;;8.60;99.90;;;;;;5078094;28;20540;-45
2022/02/08 15:17:05;;;;;;;0.80;0.43;;;8.60;99.90;;;;;;5066714;28;20650;-43
2022/02/08 15:19:34;;;;;;;1.13;0.40;;;8.60;99.90;;;;;;5068040;28;20285;-46
2022/02/08 15:22:02;;;;;;;0.90;0.50;;;8.60;99.90;;;;;;5078481;28;20210;-44
2022/02/08 15:24:29;;;;;;;1.40;0.90;;;8.60;99.90;;;;;;5064161;28;20288;-50
2022/02/08 15:26:56;;;;;;;0.80;0.80;;;8.60;99.90;;;;;;5081770;28;20285;-45
2022/02/08 15:29:26;;;;;;;0.80;0.57;;;8.60;99.90;;;;;;5077719;28;20192;-49
2022/02/08 15:31:54;;;;;;;3.80;1.00;;;8.60;99.90;;;;;;5082059;28;20198;-46
2022/02/08 15:34:21;;;;;;;0.97;0.83;;;8.60;99.90;;;;;;5067577;28;20210;-44
2022/02/08 15:36:49;;;;;;;3.03;1.17;;;8.60;99.90;;;;;;5059755;28;20209;-46
2022/02/08 15:39:16;;;;;;;1.20;1.10;;;8.60;99.90;;;;;;5070051;28;20198;-48
2022/02/08 15:41:45;;;;;;;1.30;1.00;;;8.60;99.90;;;;;;5071884;28;20221;-43
2022/02/08 15:44:18;;;;;;;2.47;1.23;;;8.60;99.90;;;;;;5077780;28;21054;-43
2022/02/08 15:46:47;;;;;;;1.57;1.30;;;8.60;99.90;;;;;;5072907;28;20276;-46
2022/02/08 15:49:15;;;;;;;3.83;1.20;;;8.50;99.90;;;;;;5071947;28;20204;-45
2022/02/08 15:51:46;;;;;;;1.93;1.23;;;8.50;99.90;;;;;;5061645;28;20217;-46
2022/02/08 15:54:23;;;;;;;3.70;1.47;;;8.50;99.90;;;;;;5063185;28;20209;-46
2022/02/08 16:05:15;;;;;;;6.00;1.23;;;8.50;99.90;;;;;;5067907;28;20206;-46
2022/02/08 16:07:50;;;;;;;3.90;1.83;;;8.50;99.90;;;;;;5062641;28;20297;-49
2022/02/08 16:10:25;;;;;;;2.10;1.60;;;8.40;99.90;;;;;;5064748;28;20250;-45
2022/02/08 16:13:11;;;;;;;4.77;2.20;;;8.50;99.90;;;;;;5075193;28;20190;-47
2022/02/08 16:15:52;;;;;;;3.50;1.80;;;8.40;99.90;;;;;;5069030;28;20202;-48
2022/02/08 16:18:27;;;;;;;4.03;2.07;;;8.40;99.90;;;;;;5068224;28;20964;-49
2022/02/08 16:24:04;;;;;;;5.80;2.23;;;8.40;99.90;;;;;;5063260;28;20324;-45
2022/02/08 16:26:48;;;;;;;6.43;2.07;;;8.40;99.90;;;;;;5069059;28;20280;-48
2022/02/08 16:29:44;;;;;;;6.87;2.23;;;8.30;99.90;;;;;;5061969;28;20957;-44
2022/02/08 16:32:28;;;;;;;9.77;2.40;;;8.30;99.90;;;;;;5073457;28;20281;-47
2022/02/08 16:46:17;;;;;;;7.73;2.93;;;8.30;99.90;;;;;;5076628;28;20194;-46
2022/02/08 16:49:10;;;;;;;8.20;2.73;;;8.30;99.90;;;;;;5076642;28;20214;-46
2022/02/08 16:54:25;;;;;;;6.77;3.50;;;8.20;99.90;;;;;;5059815;28;20197;-44
2022/02/08 16:56:59;;;;;;;12.33;3.23;;;8.20;99.90;;;;;;5073891;28;20204;-45
2022/02/08 16:59:29;;;;;;;6.20;2.70;;;8.20;99.90;;;;;;5066730;28;20202;-45
2022/02/08 17:01:59;;;;;;;7.40;2.63;;;8.20;99.90;;;;;;5074444;28;20202;-44
2022/02/08 17:04:26;;;;;;;13.80;3.37;;;8.20;99.90;;;;;;5074680;28;20198;-44
2022/02/08 17:06:53;;;;;;;11.10;3.53;;;8.20;99.90;;;;;;5079235;28;20711;-46
2022/02/08 17:09:29;;;;;;;11.67;3.17;;;8.20;99.90;;;;;;5058303;28;20197;-47
2022/02/08 17:12:02;;;;;;;8.97;3.03;;;8.20;99.90;;;;;;5076310;28;20182;-45
2022/02/08 17:14:45;;;;;;;11.83;3.70;;;8.20;99.90;;;;;;5069900;28;20340;-45
2022/02/08 17:17:44;;;;;;;11.93;4.10;;;8.20;99.90;;;;;;5077590;28;20212;-46
2022/02/08 17:45:25;;;;;;;8.70;3.40;;;8.20;99.90;;;;;;5062610;28;20282;-44
2022/02/08 17:47:53;;;;;;;8.73;2.90;;;8.20;99.90;;;;;;5080471;28;20237;-46
2022/02/08 17:50:21;;;;;;;8.93;3.00;;;8.20;99.90;;;;;;5072378;28;20197;-46
2022/02/08 17:52:49;;;;;;;7.37;2.97;;;8.20;99.90;;;;;;5082620;28;20683;-46
2022/02/08 17:55:17;;;;;;;7.50;3.40;;;8.20;99.90;;;;;;5065263;28;20212;-46